Time;durP1;ratioP1;P1;durP2;ratioP2;P2;SDS_P1;SDS_P2;PMS_P1;PMS_P2;Temp;Humidity;BMP_temperature;BMP_pressure;BME280_temperature;BME280_humidity;BME280_pressure;Samples;Min_cycle;Max_cycle;Signal;HPM_P1;HPM_P2
2021/11/20 00:01:48;;;;;;;5.20;4.50;;;12.70;99.90;;;;;;5117447;28;20460;-67
2021/11/20 00:04:16;;;;;;;6.47;4.30;;;12.70;99.90;;;;;;5117816;28;20446;-67
2021/11/20 00:06:46;;;;;;;6.97;4.87;;;12.60;99.90;;;;;;5117300;28;20489;-67
2021/11/20 00:09:15;;;;;;;9.03;5.77;;;12.60;99.90;;;;;;5117526;28;20489;-67
2021/11/20 00:11:44;;;;;;;7.33;4.60;;;12.60;99.90;;;;;;5117577;28;20485;-66
2021/11/20 00:14:13;;;;;;;14.97;5.43;;;12.60;99.90;;;;;;5117187;28;20549;-67
2021/11/20 00:16:42;;;;;;;7.23;4.90;;;12.60;99.90;;;;;;5117672;28;20540;-67
2021/11/20 00:19:10;;;;;;;7.03;4.67;;;12.60;99.90;;;;;;5117492;28;20460;-67
2021/11/20 00:21:42;;;;;;;7.43;4.87;;;12.60;99.90;;;;;;5117444;28;20526;-67
2021/11/20 00:24:18;;;;;;;14.13;6.77;;;12.60;99.90;;;;;;5117473;28;20425;-66
2021/11/20 00:26:45;;;;;;;6.63;5.40;;;12.60;99.90;;;;;;5117525;28;20780;-66
2021/11/20 00:29:38;;;;;;;10.70;5.23;;;12.60;99.90;;;;;;5117434;28;20448;-67
2021/11/20 00:32:08;;;;;;;9.10;5.13;;;12.60;99.90;;;;;;5117265;28;20435;-69
2021/11/20 00:34:35;;;;;;;6.27;4.97;;;12.60;99.90;;;;;;5117200;28;20526;-67
2021/11/20 00:37:04;;;;;;;13.20;5.40;;;12.60;99.90;;;;;;5116810;28;20519;-67
2021/11/20 00:39:33;;;;;;;5.43;5.03;;;12.50;99.90;;;;;;5117049;28;20559;-67
2021/11/20 00:42:01;;;;;;;11.97;5.70;;;12.60;99.90;;;;;;5116663;28;20530;-69
2021/11/20 00:44:30;;;;;;;8.80;5.43;;;12.50;99.90;;;;;;5116296;28;20934;-68
2021/11/20 00:46:58;;;;;;;11.00;7.27;;;12.60;99.90;;;;;;5116620;28;20487;-68
2021/11/20 00:49:25;;;;;;;12.70;6.20;;;12.60;99.90;;;;;;5116305;28;20478;-67
2021/11/20 00:51:53;;;;;;;6.60;5.13;;;12.50;99.90;;;;;;5116896;28;20659;-67
2021/11/20 00:54:21;;;;;;;13.23;5.10;;;12.60;99.90;;;;;;5117005;28;20482;-67
2021/11/20 00:56:49;;;;;;;6.10;5.07;;;12.60;99.90;;;;;;5116720;28;20456;-66
2021/11/20 00:59:16;;;;;;;8.80;7.10;;;12.50;99.90;;;;;;5116899;28;20453;-66
2021/11/20 01:01:46;;;;;;;7.97;5.83;;;12.50;99.90;;;;;;5116868;28;20462;-67
2021/11/20 01:04:13;;;;;;;11.67;5.40;;;12.50;99.90;;;;;;5116489;28;20572;-67
2021/11/20 01:06:42;;;;;;;8.33;5.50;;;12.50;99.90;;;;;;5116409;28;20761;-67
2021/11/20 01:09:11;;;;;;;6.77;5.10;;;12.40;99.90;;;;;;5116796;28;20457;-68
2021/11/20 01:11:45;;;;;;;6.17;5.33;;;12.50;99.90;;;;;;5116991;28;20453;-68
2021/11/20 01:14:16;;;;;;;7.33;6.00;;;12.50;99.90;;;;;;5117130;28;20498;-67
2021/11/20 01:16:46;;;;;;;11.73;5.70;;;12.50;99.90;;;;;;5116515;28;20454;-67
2021/11/20 01:19:14;;;;;;;6.50;5.10;;;12.50;99.90;;;;;;5116196;28;20460;-66
2021/11/20 01:21:41;;;;;;;9.93;5.57;;;12.50;99.90;;;;;;5116219;28;20485;-66
2021/11/20 01:24:12;;;;;;;9.30;5.50;;;12.50;99.90;;;;;;5116205;28;20496;-67
2021/11/20 01:26:41;;;;;;;10.43;6.00;;;12.40;99.90;;;;;;5116438;28;20437;-67
2021/11/20 01:29:11;;;;;;;9.07;5.33;;;12.40;99.90;;;;;;5116197;28;20453;-67
2021/11/20 01:31:42;;;;;;;7.93;5.40;;;12.50;99.90;;;;;;5116053;28;20434;-67
2021/11/20 01:34:10;;;;;;;5.03;4.43;;;12.50;99.90;;;;;;5115939;28;20543;-67
2021/11/20 01:36:39;;;;;;;6.73;5.10;;;12.50;99.90;;;;;;5115749;28;20540;-68
2021/11/20 01:39:10;;;;;;;7.60;5.30;;;12.50;99.90;;;;;;5115442;28;20519;-67
2021/11/20 01:41:42;;;;;;;8.03;5.53;;;12.40;99.90;;;;;;5115988;28;20440;-67
2021/11/20 01:44:13;;;;;;;12.90;5.37;;;12.40;99.90;;;;;;5115616;28;20438;-67
2021/11/20 01:46:44;;;;;;;6.20;4.77;;;12.40;99.90;;;;;;5115734;28;20464;-67
2021/11/20 01:49:17;;;;;;;9.30;4.70;;;12.50;99.90;;;;;;5115629;28;20442;-67
2021/11/20 01:51:48;;;;;;;8.70;5.13;;;12.40;99.90;;;;;;5115377;28;20937;-67
2021/11/20 01:54:28;;;;;;;7.03;5.40;;;12.40;99.90;;;;;;5114962;28;20941;-67
2021/11/20 01:57:02;;;;;;;6.93;4.27;;;12.40;99.90;;;;;;5115477;28;20441;-68
2021/11/20 01:59:34;;;;;;;6.93;4.47;;;12.40;99.90;;;;;;5116145;28;20765;-67
2021/11/20 02:02:06;;;;;;;7.87;4.37;;;12.30;99.90;;;;;;5115634;28;20441;-66
2021/11/20 02:04:40;;;;;;;10.60;4.53;;;12.30;99.90;;;;;;5115169;28;20939;-68
2021/11/20 02:07:21;;;;;;;8.67;4.10;;;12.30;99.90;;;;;;5115184;28;20495;-68
2021/11/20 02:09:51;;;;;;;6.73;4.43;;;12.40;99.90;;;;;;5115528;28;20471;-68
2021/11/20 02:12:23;;;;;;;5.37;3.93;;;12.40;99.90;;;;;;5115462;28;20437;-67
2021/11/20 02:14:50;;;;;;;5.97;3.90;;;12.30;99.90;;;;;;5114911;28;20561;-66
2021/11/20 02:17:20;;;;;;;5.90;4.23;;;12.30;99.90;;;;;;5115555;28;20457;-66
2021/11/20 02:19:50;;;;;;;6.70;4.03;;;12.30;99.90;;;;;;5115809;28;20441;-68
2021/11/20 02:22:24;;;;;;;6.20;3.83;;;12.30;99.90;;;;;;5115211;28;20530;-67
2021/11/20 02:24:50;;;;;;;7.30;4.03;;;12.30;99.90;;;;;;5115393;28;20434;-67
2021/11/20 02:27:19;;;;;;;5.03;3.43;;;12.30;99.90;;;;;;5115381;28;20479;-67
2021/11/20 02:29:46;;;;;;;4.63;3.33;;;12.30;99.90;;;;;;5115513;28;20452;-68
2021/11/20 02:32:16;;;;;;;4.13;3.17;;;12.30;99.90;;;;;;5115340;28;20457;-68
2021/11/20 02:34:44;;;;;;;4.20;3.20;;;12.30;99.90;;;;;;5115337;28;20530;-68
2021/11/20 02:37:12;;;;;;;7.73;3.33;;;12.30;99.90;;;;;;5115131;28;20493;-67
2021/11/20 02:39:39;;;;;;;4.77;3.20;;;12.30;99.90;;;;;;5115211;28;20516;-68
2021/11/20 02:42:10;;;;;;;5.23;3.10;;;12.30;99.90;;;;;;5115183;28;20487;-68
2021/11/20 02:44:38;;;;;;;7.47;3.30;;;12.30;99.90;;;;;;5114516;28;20441;-67
2021/11/20 02:47:18;;;;;;;5.53;3.17;;;12.40;99.90;;;;;;5114938;28;20497;-68
2021/11/20 02:49:47;;;;;;;3.70;2.80;;;12.30;99.90;;;;;;5114989;28;20936;-68
2021/11/20 02:52:16;;;;;;;5.23;2.67;;;12.30;99.90;;;;;;5115117;28;20500;-67
2021/11/20 02:54:45;;;;;;;3.10;2.80;;;12.30;99.90;;;;;;5114889;28;20539;-68
2021/11/20 02:57:15;;;;;;;3.60;2.77;;;12.30;99.90;;;;;;5114875;28;20455;-68
2021/11/20 02:59:43;;;;;;;4.30;2.90;;;12.30;99.90;;;;;;5115252;28;20454;-67
2021/11/20 03:02:10;;;;;;;4.23;2.63;;;12.30;99.90;;;;;;5114550;28;20489;-67
2021/11/20 03:04:40;;;;;;;5.07;3.27;;;12.30;99.90;;;;;;5114842;28;20551;-66
2021/11/20 03:07:08;;;;;;;6.00;3.03;;;12.30;99.90;;;;;;5117152;28;20958;-68
2021/11/20 03:09:37;;;;;;;4.93;3.30;;;12.30;99.90;;;;;;5118675;28;20556;-66
2021/11/20 03:12:07;;;;;;;6.03;3.10;;;12.20;99.90;;;;;;5118747;28;20456;-67
2021/11/20 03:14:35;;;;;;;6.13;3.13;;;12.20;99.90;;;;;;5118414;28;20457;-66
2021/11/20 03:17:05;;;;;;;4.07;3.67;;;12.10;99.90;;;;;;5118622;28;20467;-67
2021/11/20 03:19:36;;;;;;;4.20;3.17;;;12.10;99.90;;;;;;5118685;28;20499;-66
2021/11/20 03:22:06;;;;;;;5.87;3.30;;;12.10;99.90;;;;;;5118449;27;20509;-66
2021/11/20 03:24:35;;;;;;;5.20;3.33;;;12.10;99.90;;;;;;5118701;28;20476;-68
2021/11/20 03:27:02;;;;;;;5.70;3.30;;;12.10;99.90;;;;;;5118277;28;20454;-66
2021/11/20 03:29:29;;;;;;;4.80;3.33;;;12.00;99.90;;;;;;5118764;27;20796;-67
2021/11/20 03:31:58;;;;;;;7.07;4.23;;;12.00;99.90;;;;;;5118437;28;20517;-67
2021/11/20 03:34:27;;;;;;;5.70;3.90;;;11.90;99.90;;;;;;5118433;28;20515;-66
2021/11/20 03:36:57;;;;;;;4.83;3.73;;;11.90;99.90;;;;;;5118406;28;20452;-67
2021/11/20 03:39:24;;;;;;;6.47;4.03;;;11.90;99.90;;;;;;5118213;28;20518;-67
2021/11/20 03:41:53;;;;;;;5.20;3.53;;;11.80;99.90;;;;;;5118108;28;20495;-66
2021/11/20 03:44:20;;;;;;;8.50;4.07;;;11.70;99.90;;;;;;5118169;28;20510;-67
2021/11/20 03:46:47;;;;;;;7.87;4.30;;;11.70;99.90;;;;;;5118165;28;20460;-67
2021/11/20 03:49:14;;;;;;;6.10;3.30;;;11.70;99.90;;;;;;5118048;28;20499;-67
2021/11/20 03:51:42;;;;;;;5.07;4.00;;;11.70;99.90;;;;;;5118442;28;20513;-67
2021/11/20 03:54:09;;;;;;;4.40;3.90;;;11.70;99.90;;;;;;5118272;28;20491;-67
2021/11/20 03:56:37;;;;;;;5.00;4.13;;;11.70;99.90;;;;;;5117782;28;20455;-67
2021/11/20 03:59:05;;;;;;;6.90;4.07;;;11.70;99.90;;;;;;5117600;28;20455;-67
2021/11/20 04:01:32;;;;;;;6.37;4.10;;;11.70;99.90;;;;;;5117742;28;20947;-67
2021/11/20 04:04:00;;;;;;;5.27;3.50;;;11.70;99.90;;;;;;5117739;28;20453;-67
2021/11/20 04:06:27;;;;;;;4.97;3.47;;;11.70;99.90;;;;;;5118134;28;20488;-67
2021/11/20 04:08:54;;;;;;;5.33;3.43;;;11.80;99.90;;;;;;5117889;28;20675;-67
2021/11/20 04:11:23;;;;;;;4.57;3.00;;;11.80;99.90;;;;;;5117424;28;20456;-67
2021/11/20 04:13:50;;;;;;;4.77;4.03;;;11.70;99.90;;;;;;5117659;28;20948;-67
2021/11/20 04:16:20;;;;;;;6.40;4.23;;;11.70;99.90;;;;;;5117532;28;20799;-67
2021/11/20 04:18:47;;;;;;;4.70;3.53;;;11.70;99.90;;;;;;5117155;28;20870;-67
2021/11/20 04:21:15;;;;;;;5.37;3.83;;;11.70;99.90;;;;;;5118205;28;20519;-67
2021/11/20 04:23:45;;;;;;;5.00;3.40;;;11.70;99.90;;;;;;5117218;28;20483;-67
2021/11/20 04:26:13;;;;;;;3.60;3.27;;;11.70;99.90;;;;;;5117312;28;20466;-67
2021/11/20 04:28:40;;;;;;;3.87;3.20;;;11.70;99.90;;;;;;5117113;28;20453;-67
2021/11/20 04:31:07;;;;;;;4.90;3.40;;;11.70;99.90;;;;;;5116855;28;20479;-67
2021/11/20 04:33:35;;;;;;;3.77;2.93;;;11.70;99.90;;;;;;5117385;28;20461;-66
2021/11/20 04:36:03;;;;;;;6.03;3.13;;;11.70;99.90;;;;;;5117168;28;20953;-66
2021/11/20 04:38:30;;;;;;;7.20;4.13;;;11.70;99.90;;;;;;5117130;28;20482;-67
2021/11/20 04:40:57;;;;;;;3.43;2.93;;;11.80;99.90;;;;;;5117069;28;20481;-67
2021/11/20 04:43:24;;;;;;;3.50;3.10;;;11.80;99.90;;;;;;5117237;28;20488;-67
2021/11/20 04:45:52;;;;;;;4.90;3.30;;;11.70;99.90;;;;;;5117373;28;20453;-67
2021/11/20 04:48:20;;;;;;;6.20;4.00;;;11.70;99.90;;;;;;5117143;28;20839;-67
2021/11/20 04:50:50;;;;;;;9.37;3.43;;;11.80;99.90;;;;;;5116826;28;20482;-67
2021/11/20 04:53:17;;;;;;;4.00;3.43;;;11.80;99.90;;;;;;5117066;28;20525;-67
2021/11/20 04:55:45;;;;;;;5.30;3.00;;;11.80;99.90;;;;;;5116449;28;20478;-67
2021/11/20 04:58:12;;;;;;;5.23;3.57;;;11.80;99.90;;;;;;5116803;28;20456;-67
2021/11/20 05:00:42;;;;;;;3.93;2.90;;;11.80;99.90;;;;;;5116656;28;20842;-67
2021/11/20 05:03:09;;;;;;;4.40;2.87;;;11.80;99.90;;;;;;5116972;28;20445;-66
2021/11/20 05:05:39;;;;;;;4.60;3.50;;;11.80;99.90;;;;;;5116428;28;20449;-66
2021/11/20 05:08:07;;;;;;;4.87;3.27;;;11.80;99.90;;;;;;5116869;28;20839;-66
2021/11/20 05:10:36;;;;;;;4.33;3.13;;;11.80;99.90;;;;;;5116473;28;20735;-66
2021/11/20 05:13:04;;;;;;;3.70;3.40;;;11.80;99.90;;;;;;5116634;28;20511;-66
2021/11/20 05:15:34;;;;;;;3.73;3.40;;;11.80;99.90;;;;;;5116772;28;20538;-66
2021/11/20 05:18:01;;;;;;;5.10;3.17;;;11.80;99.90;;;;;;5116657;28;20468;-66
2021/11/20 05:20:28;;;;;;;7.30;3.30;;;11.80;99.90;;;;;;5116330;28;20579;-66
2021/11/20 05:22:55;;;;;;;3.30;3.00;;;11.80;99.90;;;;;;5116115;28;20952;-66
2021/11/20 05:25:23;;;;;;;3.63;2.63;;;11.80;99.90;;;;;;5116560;28;20978;-66
2021/11/20 05:27:53;;;;;;;5.00;3.33;;;11.80;99.90;;;;;;5116376;28;20453;-66
2021/11/20 05:30:26;;;;;;;6.93;3.47;;;11.90;99.90;;;;;;5116175;28;20460;-67
2021/11/20 05:32:53;;;;;;;5.13;2.87;;;11.90;99.90;;;;;;5116212;28;20456;-66
2021/11/20 05:35:20;;;;;;;4.13;3.30;;;11.90;99.90;;;;;;5116210;28;20584;-65
2021/11/20 05:37:48;;;;;;;4.57;3.30;;;11.80;99.90;;;;;;5115852;28;20493;-67
2021/11/20 05:40:16;;;;;;;5.70;3.60;;;11.80;99.90;;;;;;5115950;28;20453;-66
2021/11/20 05:42:47;;;;;;;4.60;2.83;;;11.80;99.90;;;;;;5116153;28;20456;-66
2021/11/20 05:45:15;;;;;;;7.27;3.67;;;11.80;99.90;;;;;;5115981;28;20438;-66
2021/11/20 05:47:42;;;;;;;3.30;3.00;;;11.80;99.90;;;;;;5115650;28;20459;-66
2021/11/20 05:50:10;;;;;;;3.93;2.70;;;11.80;99.90;;;;;;5116121;28;20612;-66
2021/11/20 05:52:37;;;;;;;5.60;3.07;;;11.80;99.90;;;;;;5115500;28;20449;-67
2021/11/20 05:55:06;;;;;;;5.40;3.60;;;11.80;99.90;;;;;;5116012;28;20508;-67
2021/11/20 05:57:33;;;;;;;7.07;3.30;;;11.80;99.90;;;;;;5116098;28;20525;-67
2021/11/20 06:00:01;;;;;;;3.60;2.80;;;11.80;99.90;;;;;;5115647;28;20779;-67
2021/11/20 06:02:28;;;;;;;4.67;2.90;;;11.80;99.90;;;;;;5115508;28;20525;-67
2021/11/20 06:04:55;;;;;;;4.43;3.00;;;11.80;99.90;;;;;;5115607;28;20488;-67
2021/11/20 06:07:23;;;;;;;4.33;2.90;;;11.80;99.90;;;;;;5115409;28;20494;-67
2021/11/20 06:09:50;;;;;;;3.83;2.50;;;11.80;99.90;;;;;;5115645;28;20457;-67
2021/11/20 06:12:17;;;;;;;3.37;2.80;;;11.80;99.90;;;;;;5115414;28;20500;-67
2021/11/20 06:14:44;;;;;;;2.80;2.60;;;11.80;99.90;;;;;;5115272;28;20936;-67
2021/11/20 06:17:12;;;;;;;4.90;2.43;;;11.80;99.90;;;;;;5115485;28;20457;-67
2021/11/20 06:19:39;;;;;;;5.30;2.50;;;11.80;99.90;;;;;;5115343;28;20453;-67
2021/11/20 06:22:06;;;;;;;4.67;2.97;;;11.80;99.90;;;;;;5115082;28;20523;-67
2021/11/20 06:24:34;;;;;;;2.50;2.27;;;11.80;99.90;;;;;;5115442;28;20555;-67
2021/11/20 06:27:01;;;;;;;2.50;2.30;;;11.80;99.90;;;;;;5114973;28;20450;-67
2021/11/20 06:29:30;;;;;;;2.43;2.23;;;11.80;99.90;;;;;;5115682;28;20465;-67
2021/11/20 06:31:57;;;;;;;3.00;2.50;;;11.80;99.90;;;;;;5115692;28;20490;-67
2021/11/20 06:34:26;;;;;;;8.63;2.50;;;11.80;99.90;;;;;;5114815;28;20978;-67
2021/11/20 06:36:53;;;;;;;5.53;2.40;;;11.80;99.90;;;;;;5115098;28;20835;-67
2021/11/20 06:39:20;;;;;;;2.67;2.40;;;11.90;99.90;;;;;;5115434;28;20456;-67
2021/11/20 06:41:48;;;;;;;2.77;2.13;;;11.90;99.90;;;;;;5114716;28;20715;-67
2021/11/20 06:44:17;;;;;;;2.90;2.40;;;11.80;99.90;;;;;;5114994;28;20461;-67
2021/11/20 06:46:44;;;;;;;6.30;2.37;;;11.80;99.90;;;;;;5114853;28;20456;-67
2021/11/20 06:49:11;;;;;;;5.40;3.20;;;11.80;99.90;;;;;;5114851;28;20541;-66
2021/11/20 06:51:39;;;;;;;3.73;2.40;;;11.70;99.90;;;;;;5115128;28;20550;-66
2021/11/20 06:54:07;;;;;;;8.13;2.60;;;11.70;99.90;;;;;;5114528;28;20518;-67
2021/11/20 06:56:43;;;;;;;8.20;2.83;;;11.60;99.90;;;;;;5115029;28;20479;-67
2021/11/20 06:59:19;;;;;;;3.93;3.13;;;11.60;99.90;;;;;;5114956;28;20534;-68
2021/11/20 07:01:48;;;;;;;5.27;3.30;;;11.50;99.90;;;;;;5114648;28;20448;-67
2021/11/20 07:04:18;;;;;;;4.67;3.30;;;11.50;99.90;;;;;;5114737;28;20832;-67
2021/11/20 07:06:50;;;;;;;3.80;3.07;;;11.40;99.90;;;;;;5115421;28;20901;-67
2021/11/20 07:09:18;;;;;;;4.67;3.20;;;11.40;99.90;;;;;;5114864;28;20921;-67
2021/11/20 07:11:45;;;;;;;4.40;3.33;;;11.40;99.90;;;;;;5114752;28;20457;-67
2021/11/20 07:14:12;;;;;;;4.50;3.70;;;11.40;99.90;;;;;;5114677;28;20457;-67
2021/11/20 07:16:40;;;;;;;6.23;4.37;;;11.40;99.90;;;;;;5114992;28;20810;-67
2021/11/20 07:19:09;;;;;;;5.50;3.93;;;11.40;99.90;;;;;;5114856;28;20517;-67
2021/11/20 07:21:35;;;;;;;5.83;4.50;;;11.40;99.90;;;;;;5114547;28;20487;-67
2021/11/20 07:24:07;;;;;;;10.90;4.63;;;11.40;99.90;;;;;;5114537;28;20457;-67
2021/11/20 07:26:37;;;;;;;5.97;4.73;;;11.40;99.90;;;;;;5114324;28;20448;-67
2021/11/20 07:29:05;;;;;;;7.20;4.97;;;11.30;99.90;;;;;;5114646;28;20847;-67
2021/11/20 07:31:32;;;;;;;11.83;5.43;;;11.30;99.90;;;;;;5114297;28;20489;-67
2021/11/20 07:34:06;;;;;;;10.33;5.50;;;11.30;99.90;;;;;;5114667;28;20491;-67
2021/11/20 07:36:35;;;;;;;8.90;5.67;;;11.30;99.90;;;;;;5114925;28;20476;-67
2021/11/20 07:39:07;;;;;;;9.03;5.80;;;11.30;99.90;;;;;;5114768;28;20456;-67
2021/11/20 07:41:34;;;;;;;7.20;5.03;;;11.30;99.90;;;;;;5114410;28;20873;-67
2021/11/20 07:44:01;;;;;;;6.97;5.70;;;11.30;99.90;;;;;;5114453;28;20837;-67
2021/11/20 07:46:29;;;;;;;9.23;5.57;;;11.30;99.90;;;;;;5114616;28;20788;-67
2021/11/20 07:48:57;;;;;;;6.43;5.57;;;11.30;99.90;;;;;;5114268;28;20503;-67
2021/11/20 07:51:25;;;;;;;8.80;6.50;;;11.30;99.90;;;;;;5114052;28;20516;-67
2021/11/20 07:53:52;;;;;;;6.93;5.17;;;11.30;99.90;;;;;;5116375;28;20453;-67
2021/11/20 07:56:21;;;;;;;9.17;5.77;;;11.20;99.90;;;;;;5117970;28;20474;-68
2021/11/20 07:58:50;;;;;;;7.77;5.47;;;11.30;99.90;;;;;;5118143;28;20516;-67
2021/11/20 08:01:17;;;;;;;5.90;5.00;;;11.30;99.90;;;;;;5117702;28;20457;-67
2021/11/20 08:03:44;;;;;;;9.50;4.97;;;11.20;99.90;;;;;;5117719;27;20458;-67
2021/11/20 08:06:11;;;;;;;10.70;5.83;;;11.30;99.90;;;;;;5117994;28;20467;-67
2021/11/20 08:08:39;;;;;;;10.13;6.10;;;11.30;99.90;;;;;;5117962;28;20779;-66
2021/11/20 08:11:06;;;;;;;7.70;5.63;;;11.20;99.90;;;;;;5117798;28;20835;-67
2021/11/20 08:13:35;;;;;;;8.77;6.00;;;11.20;99.90;;;;;;5117711;28;20457;-68
2021/11/20 08:16:03;;;;;;;9.20;6.03;;;11.20;99.90;;;;;;5117795;28;20868;-68
2021/11/20 08:18:30;;;;;;;15.67;6.73;;;11.20;99.90;;;;;;5117891;28;20451;-67
2021/11/20 08:20:58;;;;;;;9.20;6.30;;;11.20;99.90;;;;;;5117502;28;20486;-67
2021/11/20 08:23:25;;;;;;;9.13;6.63;;;11.20;99.90;;;;;;5116743;28;20537;-67
2021/11/20 08:25:52;;;;;;;9.03;6.30;;;11.30;99.90;;;;;;5117267;28;20520;-67
2021/11/20 08:28:21;;;;;;;9.60;6.43;;;11.30;99.90;;;;;;5117446;28;20455;-67
2021/11/20 08:30:50;;;;;;;9.83;7.20;;;11.30;99.90;;;;;;5117469;28;20938;-68
2021/11/20 08:33:21;;;;;;;13.70;6.67;;;11.30;99.90;;;;;;5117451;28;20537;-67
2021/11/20 08:35:48;;;;;;;10.43;7.33;;;11.40;99.90;;;;;;5117129;28;20465;-68
2021/11/20 08:38:16;;;;;;;12.00;7.50;;;11.50;99.90;;;;;;5117438;28;20514;-68
2021/11/20 08:40:46;;;;;;;12.77;7.33;;;11.50;99.90;;;;;;5117285;28;20459;-67
2021/11/20 08:43:13;;;;;;;14.87;8.10;;;11.60;99.90;;;;;;5116917;28;20920;-67
2021/11/20 08:45:47;;;;;;;16.87;7.60;;;11.60;99.90;;;;;;5117516;28;20467;-67
2021/11/20 08:48:17;;;;;;;14.83;7.47;;;11.60;99.90;;;;;;5117085;28;20516;-67
2021/11/20 08:50:46;;;;;;;12.57;7.17;;;11.60;99.90;;;;;;5116977;28;20487;-67
2021/11/20 08:53:15;;;;;;;9.37;7.00;;;11.70;99.90;;;;;;5116796;27;20491;-67
2021/11/20 08:55:42;;;;;;;10.77;6.83;;;11.70;99.90;;;;;;5117113;28;20917;-68
2021/11/20 08:58:11;;;;;;;13.17;6.80;;;11.80;99.90;;;;;;5116964;28;20456;-67
2021/11/20 09:00:43;;;;;;;11.37;7.07;;;11.80;99.90;;;;;;5117368;28;20453;-67
2021/11/20 09:03:15;;;;;;;15.03;6.00;;;11.80;99.90;;;;;;5117112;28;20482;-68
2021/11/20 09:05:47;;;;;;;10.10;6.80;;;11.80;99.90;;;;;;5116871;28;20435;-68
2021/11/20 09:08:18;;;;;;;9.83;6.80;;;11.90;99.90;;;;;;5116822;28;20480;-68
2021/11/20 09:10:56;;;;;;;12.63;6.87;;;11.90;99.90;;;;;;5116543;28;20521;-67
2021/11/20 09:13:30;;;;;;;10.63;6.20;;;11.90;99.90;;;;;;5116360;28;20784;-67
2021/11/20 09:16:00;;;;;;;9.70;6.13;;;11.90;99.90;;;;;;5116420;28;20472;-67
2021/11/20 09:18:29;;;;;;;12.63;5.87;;;11.90;99.90;;;;;;5116441;28;20456;-67
2021/11/20 09:20:57;;;;;;;11.20;6.00;;;11.90;99.90;;;;;;5116200;28;20496;-67
2021/11/20 09:23:25;;;;;;;13.40;6.47;;;11.90;99.90;;;;;;5116171;28;20495;-67
2021/11/20 09:25:54;;;;;;;10.23;6.07;;;11.90;99.90;;;;;;5116801;28;20457;-67
2021/11/20 09:28:22;;;;;;;7.70;5.90;;;11.90;99.90;;;;;;5115873;28;20909;-67
2021/11/20 09:30:52;;;;;;;10.10;5.77;;;11.90;99.90;;;;;;5116170;28;20488;-67
2021/11/20 09:33:21;;;;;;;10.70;5.87;;;11.90;99.90;;;;;;5116694;28;20464;-67
2021/11/20 09:35:48;;;;;;;10.17;6.20;;;11.90;99.90;;;;;;5115648;28;20501;-67
2021/11/20 09:38:19;;;;;;;8.90;6.13;;;12.00;99.90;;;;;;5115853;28;20505;-67
2021/11/20 09:40:50;;;;;;;11.90;5.30;;;12.00;99.90;;;;;;5115985;28;20914;-66
2021/11/20 09:43:22;;;;;;;7.83;5.20;;;11.90;99.90;;;;;;5115980;28;20545;-68
2021/11/20 09:45:54;;;;;;;11.83;5.23;;;11.90;99.90;;;;;;5115833;28;20890;-68
2021/11/20 09:48:28;;;;;;;9.30;4.90;;;11.90;99.90;;;;;;5115996;28;20441;-68
2021/11/20 09:51:00;;;;;;;10.93;5.90;;;11.90;99.90;;;;;;5115733;28;20750;-67
2021/11/20 09:53:29;;;;;;;11.33;5.73;;;12.00;99.90;;;;;;5115490;27;20441;-68
2021/11/20 09:55:59;;;;;;;8.60;5.13;;;12.00;99.90;;;;;;5115741;28;20456;-68
2021/11/20 09:58:30;;;;;;;11.13;6.30;;;12.00;99.90;;;;;;5115919;28;20932;-68
2021/11/20 10:01:18;;;;;;;8.63;5.50;;;12.00;99.90;;;;;;5115349;28;20484;-67
2021/11/20 10:03:50;;;;;;;8.23;4.90;;;12.00;99.90;;;;;;5115176;28;20489;-68
2021/11/20 10:06:27;;;;;;;8.43;4.77;;;12.00;99.90;;;;;;5114711;28;20889;-68
2021/11/20 10:09:11;;;;;;;14.17;4.93;;;12.00;99.90;;;;;;5116319;28;20795;-68
2021/11/20 10:11:45;;;;;;;7.53;5.00;;;12.10;99.90;;;;;;5115149;28;20548;-67
2021/11/20 10:14:17;;;;;;;9.50;4.73;;;12.10;99.90;;;;;;5114761;28;20515;-70
2021/11/20 10:16:48;;;;;;;11.60;4.90;;;12.10;99.90;;;;;;5114536;28;20577;-69
2021/11/20 10:19:21;;;;;;;12.40;4.97;;;12.20;99.90;;;;;;5115620;28;20486;-67
2021/11/20 10:22:11;;;;;;;5.13;4.63;;;12.20;99.90;;;;;;5114866;28;20461;-68
2021/11/20 10:24:47;;;;;;;10.10;4.93;;;12.30;99.90;;;;;;5114958;28;20441;-67
2021/11/20 10:27:29;;;;;;;7.83;4.20;;;12.30;99.90;;;;;;5115147;28;20537;-67
2021/11/20 10:30:09;;;;;;;6.30;4.70;;;12.30;99.90;;;;;;5115586;28;20483;-68
2021/11/20 10:32:38;;;;;;;6.53;4.37;;;12.30;99.90;;;;;;5115377;28;20779;-70
2021/11/20 10:35:16;;;;;;;11.03;5.20;;;12.40;99.90;;;;;;5116654;28;20461;-70
2021/11/20 10:37:46;;;;;;;9.70;5.60;;;12.40;99.90;;;;;;5117147;28;20545;-71
2021/11/20 10:40:23;;;;;;;6.80;4.60;;;12.40;99.90;;;;;;5114406;28;20452;-70
2021/11/20 10:42:57;;;;;;;8.60;5.00;;;12.40;99.90;;;;;;5115121;28;20503;-71
2021/11/20 10:45:40;;;;;;;14.03;5.80;;;12.40;99.90;;;;;;5114708;28;20444;-70
2021/11/20 10:48:14;;;;;;;9.07;5.10;;;12.40;99.90;;;;;;5115079;28;20441;-70
2021/11/20 10:50:48;;;;;;;10.20;5.63;;;12.40;99.90;;;;;;5115801;28;20465;-71
2021/11/20 10:53:37;;;;;;;6.30;5.37;;;12.50;99.90;;;;;;5116407;28;20448;-68
2021/11/20 10:56:33;;;;;;;9.73;6.43;;;12.50;99.90;;;;;;5115410;28;20497;-70
2021/11/20 10:59:16;;;;;;;7.37;5.40;;;12.50;99.90;;;;;;5112909;28;20850;-72
2021/11/20 11:02:29;;;;;;;10.27;5.67;;;12.50;99.90;;;;;;5115355;28;20506;-71
2021/11/20 11:05:29;;;;;;;8.87;4.97;;;12.60;99.90;;;;;;5115161;28;20505;-69
2021/11/20 11:08:10;;;;;;;10.07;6.57;;;12.60;99.90;;;;;;5116589;28;20445;-70
2021/11/20 11:10:43;;;;;;;10.40;6.00;;;12.60;99.90;;;;;;5115413;28;20502;-71
2021/11/20 11:13:21;;;;;;;13.80;6.77;;;12.60;99.90;;;;;;5115550;28;20441;-70
2021/11/20 11:16:08;;;;;;;11.70;6.47;;;12.60;99.90;;;;;;5115252;28;20839;-68
2021/11/20 11:18:41;;;;;;;7.80;6.93;;;12.50;99.90;;;;;;5115209;28;20503;-69
2021/11/20 11:21:44;;;;;;;11.47;7.33;;;12.60;99.90;;;;;;5115095;28;20893;-68
2021/11/20 11:24:46;;;;;;;9.47;6.27;;;12.50;99.90;;;;;;5115253;28;20506;-68
2021/11/20 11:27:16;;;;;;;9.23;7.30;;;12.60;99.90;;;;;;5115762;28;20885;-68
2021/11/20 11:29:54;;;;;;;6.90;6.20;;;12.60;99.90;;;;;;5118551;28;20481;-67
2021/11/20 11:32:21;;;;;;;9.43;7.43;;;12.60;99.90;;;;;;5118232;28;20481;-68
2021/11/20 11:34:53;;;;;;;11.33;7.70;;;12.50;99.90;;;;;;5118418;28;20452;-68
2021/11/20 11:37:26;;;;;;;9.37;6.50;;;12.60;99.90;;;;;;5118542;28;20460;-68
2021/11/20 11:39:58;;;;;;;7.87;6.50;;;12.60;99.90;;;;;;5118447;28;20437;-68
2021/11/20 11:42:44;;;;;;;8.40;7.17;;;12.50;99.90;;;;;;5118455;28;20441;-68
2021/11/20 11:45:40;;;;;;;8.47;7.67;;;12.60;99.90;;;;;;5118300;28;20482;-68
2021/11/20 11:48:45;;;;;;;10.37;7.80;;;12.60;99.90;;;;;;5084988;28;20464;-68
2021/11/20 11:51:31;;;;;;;10.70;8.47;;;12.50;99.90;;;;;;5118491;28;20739;-68
2021/11/20 11:54:04;;;;;;;11.00;7.60;;;12.50;99.90;;;;;;5117903;27;20443;-68
2021/11/20 11:56:34;;;;;;;10.17;7.93;;;12.40;99.90;;;;;;5118347;28;20470;-68
2021/11/20 11:59:21;;;;;;;13.07;8.03;;;12.40;99.90;;;;;;5117984;28;20443;-68
2021/11/20 12:02:14;;;;;;;9.97;7.77;;;12.40;99.90;;;;;;5117945;28;20441;-68
2021/11/20 12:04:44;;;;;;;11.83;7.60;;;12.40;99.90;;;;;;5117681;28;20522;-68
2021/11/20 12:07:26;;;;;;;16.53;9.37;;;12.40;99.90;;;;;;5117527;28;20486;-67
2021/11/20 12:10:06;;;;;;;10.13;8.17;;;12.40;99.90;;;;;;5117506;28;20438;-68
2021/11/20 12:12:36;;;;;;;14.97;8.63;;;12.40;99.90;;;;;;5117563;28;20472;-68
2021/11/20 12:15:23;;;;;;;11.13;8.50;;;12.40;99.90;;;;;;5117836;28;20480;-68
2021/11/20 12:18:00;;;;;;;12.17;8.53;;;12.40;99.90;;;;;;5117527;28;20497;-68
2021/11/20 12:20:38;;;;;;;13.43;8.80;;;12.40;99.90;;;;;;5116984;28;20438;-68
2021/11/20 12:23:27;;;;;;;11.40;8.73;;;12.40;99.90;;;;;;5116959;28;20957;-68
2021/11/20 12:26:09;;;;;;;13.60;8.83;;;12.50;99.90;;;;;;5117331;28;20510;-68
2021/11/20 12:28:39;;;;;;;11.37;8.20;;;12.50;99.90;;;;;;5117011;28;20469;-68
2021/11/20 12:31:31;;;;;;;13.33;8.00;;;12.50;99.90;;;;;;5117147;28;20457;-68
2021/11/20 12:34:11;;;;;;;12.40;9.10;;;12.60;99.90;;;;;;5117338;28;20801;-69
2021/11/20 12:37:20;;;;;;;10.97;8.50;;;12.60;99.90;;;;;;5116971;28;20444;-70
2021/11/20 12:40:01;;;;;;;10.73;8.50;;;12.70;99.90;;;;;;5115953;28;20918;-69
2021/11/20 12:42:47;;;;;;;15.50;9.03;;;12.60;99.90;;;;;;5116889;28;20578;-69
2021/11/20 12:45:49;;;;;;;9.77;8.67;;;12.60;99.90;;;;;;5116985;28;20472;-68
2021/11/20 12:48:36;;;;;;;12.40;9.37;;;12.60;99.90;;;;;;5116875;28;20469;-69
2021/11/20 12:51:10;;;;;;;13.93;8.77;;;12.60;99.90;;;;;;5117173;28;20474;-69
2021/11/20 12:53:51;;;;;;;12.70;8.30;;;12.50;99.90;;;;;;5117448;28;20433;-69
2021/11/20 12:56:28;;;;;;;9.90;8.13;;;12.60;99.90;;;;;;5116583;28;20472;-69
2021/11/20 12:58:57;;;;;;;8.83;7.97;;;12.50;99.90;;;;;;5116800;28;20472;-68
2021/11/20 13:01:27;;;;;;;14.17;9.73;;;12.50;99.90;;;;;;5116747;28;20458;-69
2021/11/20 13:04:07;;;;;;;13.90;8.80;;;12.50;99.90;;;;;;5116501;28;20462;-69
2021/11/20 13:06:42;;;;;;;12.57;9.67;;;12.50;99.90;;;;;;5116466;28;20458;-69